createdAt,value
2018-07-13T00:01:10.696Z,7.13
2018-07-13T00:03:39.030Z,7.73
2018-07-13T00:06:08.605Z,7.27
2018-07-13T00:08:37.038Z,7.13
2018-07-13T00:11:05.579Z,7.50
2018-07-13T00:13:44.094Z,7.63
2018-07-13T00:16:13.511Z,7.33
2018-07-13T00:18:41.884Z,6.93
2018-07-13T00:21:12.325Z,7.23
2018-07-13T00:23:41.981Z,7.63
2018-07-13T00:26:10.581Z,8.03
2018-07-13T00:28:39.173Z,8.40
2018-07-13T00:31:07.692Z,7.50
2018-07-13T00:33:36.131Z,7.67
2018-07-13T00:36:04.687Z,8.23
2018-07-13T00:38:33.067Z,8.47
2018-07-13T00:41:01.425Z,8.10
2018-07-13T00:43:29.884Z,7.50
2018-07-13T00:45:58.229Z,7.97
2018-07-13T00:48:26.606Z,8.17
2018-07-13T00:50:55.147Z,8.30
2018-07-13T00:53:23.638Z,8.40
2018-07-13T00:55:52.171Z,9.03
2018-07-13T00:58:20.726Z,8.80
2018-07-13T01:00:49.001Z,8.30
2018-07-13T01:03:17.452Z,8.43
2018-07-13T01:05:45.822Z,7.40
2018-07-13T01:08:14.223Z,8.47
2018-07-13T01:10:42.829Z,8.00
2018-07-13T01:13:11.179Z,9.20
2018-07-13T01:15:39.634Z,8.50
2018-07-13T01:18:08.108Z,8.57
2018-07-13T01:20:36.543Z,9.23
2018-07-13T01:23:05.321Z,8.80
2018-07-13T01:25:33.894Z,9.57
2018-07-13T01:28:02.037Z,8.63
2018-07-13T01:30:30.364Z,8.90
2018-07-13T01:32:58.713Z,8.83
2018-07-13T01:35:27.235Z,8.87
2018-07-13T01:37:55.587Z,9.00
2018-07-13T01:40:23.939Z,9.27
2018-07-13T01:42:52.383Z,9.93
2018-07-13T01:45:20.712Z,9.33
2018-07-13T01:47:49.114Z,10.03
2018-07-13T01:50:17.646Z,8.60
2018-07-13T01:52:46.155Z,9.43
2018-07-13T01:55:14.533Z,9.30
2018-07-13T01:57:43.057Z,9.20
